Time;durP1;ratioP1;P1;durP2;ratioP2;P2;SDS_P1;SDS_P2;PMS_P1;PMS_P2;Temp;Humidity;BMP_temperature;BMP_pressure;BME280_temperature;BME280_humidity;BME280_pressure;Samples;Min_cycle;Max_cycle;Signal;HPM_P1;HPM_P2
2023/01/11 00:00:01;;;;;;;2.00;1.20;;;;;;;;;;4915133;29;20226;-68
2023/01/11 00:02:26;;;;;;;2.80;1.20;;;;;;;;;;4917499;29;20718;-69
2023/01/11 00:04:52;;;;;;;1.45;1.02;;;;;;;;;;4925133;29;20235;-70
2023/01/11 00:07:17;;;;;;;2.47;1.10;;;;;;;;;;4926050;29;20387;-69
2023/01/11 00:09:43;;;;;;;3.20;1.38;;;;;;;;;;4925661;29;20827;-69
2023/01/11 00:12:11;;;;;;;1.85;0.95;;;;;;;;;;4928983;28;20228;-69
2023/01/11 00:14:36;;;;;;;1.77;1.00;;;;;;;;;;4945582;28;20225;-69
2023/01/11 00:17:01;;;;;;;3.03;1.10;;;;;;;;;;4943540;28;20573;-69
2023/01/11 00:19:27;;;;;;;2.00;1.05;;;;;;;;;;4938233;28;20297;-70
2023/01/11 00:21:52;;;;;;;5.03;1.70;;;;;;;;;;4937685;28;20614;-70
2023/01/11 00:24:17;;;;;;;2.42;1.27;;;;;;;;;;4918448;29;20227;-69
2023/01/11 00:26:42;;;;;;;2.20;1.17;;;;;;;;;;4931437;28;20221;-69
2023/01/11 00:29:08;;;;;;;1.58;1.05;;;;;;;;;;4926690;28;20284;-69
2023/01/11 00:31:33;;;;;;;2.15;1.00;;;;;;;;;;4945194;28;20214;-69
2023/01/11 00:33:59;;;;;;;2.45;1.30;;;;;;;;;;4928030;29;20219;-70
2023/01/11 00:36:24;;;;;;;2.47;1.25;;;;;;;;;;4924814;29;20234;-70
2023/01/11 00:38:52;;;;;;;2.03;1.10;;;;;;;;;;4940520;28;20229;-70
2023/01/11 00:49:31;;;;;;;2.90;1.25;;;;;;;;;;4943464;28;20225;-70
2023/01/11 00:51:56;;;;;;;3.83;1.23;;;;;;;;;;4931986;28;20219;-70
2023/01/11 00:54:21;;;;;;;3.45;1.33;;;;;;;;;;4924985;29;20219;-69
2023/01/11 00:56:46;;;;;;;2.90;1.17;;;;;;;;;;4925558;29;20223;-70
2023/01/11 00:59:12;;;;;;;1.67;1.25;;;;;;;;;;4934322;28;20218;-69
2023/01/11 01:01:37;;;;;;;2.30;1.20;;;;;;;;;;4944577;28;20692;-70
2023/01/11 01:04:03;;;;;;;1.67;1.17;;;;;;;;;;4938601;28;20920;-68
2023/01/11 01:06:28;;;;;;;2.00;1.20;;;;;;;;;;4927940;28;20277;-69
2023/01/11 01:08:53;;;;;;;2.22;1.10;;;;;;;;;;4918147;29;20275;-69
2023/01/11 01:11:19;;;;;;;3.58;1.17;;;;;;;;;;4932415;28;20694;-68
2023/01/11 01:16:28;;;;;;;2.65;1.20;;;;;;;;;;4938873;28;20274;-68
2023/01/11 01:18:56;;;;;;;1.85;1.00;;;;;;;;;;4924536;29;20223;-68
2023/01/11 01:21:21;;;;;;;2.45;0.90;;;;;;;;;;4924459;29;20215;-68
2023/01/11 01:23:47;;;;;;;1.95;1.00;;;;;;;;;;4942809;28;20578;-68
2023/01/11 01:26:12;;;;;;;1.80;1.10;;;;;;;;;;4920277;29;20215;-68
2023/01/11 01:28:37;;;;;;;1.42;0.80;;;;;;;;;;4917823;29;21149;-68
2023/01/11 01:31:02;;;;;;;2.55;1.13;;;;;;;;;;4917311;29;20235;-68
2023/01/11 01:33:28;;;;;;;2.75;0.93;;;;;;;;;;4920459;29;20219;-69
2023/01/11 01:35:53;;;;;;;1.60;0.90;;;;;;;;;;4924559;29;20598;-68
2023/01/11 01:38:18;;;;;;;2.08;1.20;;;;;;;;;;4924083;29;20654;-68
2023/01/11 01:40:44;;;;;;;1.52;1.00;;;;;;;;;;4924443;29;21129;-68
2023/01/11 01:43:10;;;;;;;1.60;0.98;;;;;;;;;;4924427;28;20219;-68
2023/01/11 01:45:35;;;;;;;3.40;1.10;;;;;;;;;;4924558;29;20227;-69
2023/01/11 01:48:01;;;;;;;2.05;0.90;;;;;;;;;;4922432;29;20318;-67
2023/01/11 01:50:28;;;;;;;1.70;1.00;;;;;;;;;;4914621;29;20211;-69
2023/01/11 01:52:55;;;;;;;2.25;0.80;;;;;;;;;;4929492;28;20222;-69
2023/01/11 01:55:23;;;;;;;1.83;1.25;;;;;;;;;;4929924;28;20670;-69
2023/01/11 01:57:48;;;;;;;1.08;0.93;;;;;;;;;;4942819;28;21007;-69
2023/01/11 02:00:14;;;;;;;1.85;1.00;;;;;;;;;;4942926;28;20222;-69
2023/01/11 02:02:39;;;;;;;1.85;0.80;;;;;;;;;;4942349;28;20218;-69
2023/01/11 02:05:05;;;;;;;1.42;0.88;;;;;;;;;;4942609;28;20232;-68
2023/01/11 02:07:32;;;;;;;1.50;0.90;;;;;;;;;;4925985;29;20752;-69
2023/01/11 02:10:01;;;;;;;1.48;0.75;;;;;;;;;;4924452;29;20634;-69
2023/01/11 02:12:27;;;;;;;1.40;0.88;;;;;;;;;;4935010;28;20214;-69
2023/01/11 02:14:53;;;;;;;1.65;0.77;;;;;;;;;;4924578;28;20219;-69
2023/01/11 02:17:18;;;;;;;1.23;0.65;;;;;;;;;;4914668;29;20223;-69
2023/01/11 02:19:49;;;;;;;1.77;0.75;;;;;;;;;;4923518;29;20269;-69
2023/01/11 02:22:21;;;;;;;2.60;0.70;;;;;;;;;;4941503;28;20357;-69
2023/01/11 02:24:54;;;;;;;1.77;0.80;;;;;;;;;;4934850;28;20234;-69
2023/01/11 02:27:27;;;;;;;0.60;0.57;;;;;;;;;;4926137;28;20572;-69
2023/01/11 02:30:02;;;;;;;0.60;0.52;;;;;;;;;;4942100;28;20214;-69
2023/01/11 02:32:31;;;;;;;0.70;0.57;;;;;;;;;;4940065;28;20214;-69
2023/01/11 02:34:58;;;;;;;0.80;0.50;;;;;;;;;;4923468;28;20646;-69
2023/01/11 02:37:29;;;;;;;0.60;0.40;;;;;;;;;;4953553;28;20288;-68
2023/01/11 02:39:57;;;;;;;0.68;0.47;;;;;;;;;;4955992;28;20221;-69
2023/01/11 02:45:18;;;;;;;0.60;0.40;;;;;;;;;;4961189;28;20241;-69
2023/01/11 02:47:46;;;;;;;1.60;0.68;;;;;;;;;;4959149;28;20304;-69
2023/01/11 02:50:15;;;;;;;0.75;0.50;;;;;;;;;;4967349;28;20214;-69
2023/01/11 02:52:44;;;;;;;0.60;0.50;;;;;;;;;;4966780;28;20215;-69
2023/01/11 02:55:09;;;;;;;1.58;0.60;;;;;;;;;;4967908;28;20219;-68
2023/01/11 02:57:36;;;;;;;0.75;0.55;;;;;;;;;;4968349;28;20225;-68
2023/01/11 03:00:02;;;;;;;0.70;0.50;;;;;;;;;;4967161;28;20210;-69
2023/01/11 03:02:27;;;;;;;0.50;0.50;;;;;;;;;;4968867;28;20558;-69
2023/01/11 03:04:53;;;;;;;1.05;0.50;;;;;;;;;;4953666;28;20724;-69
2023/01/11 03:07:22;;;;;;;0.50;0.50;;;;;;;;;;4969056;28;20273;-69
2023/01/11 03:09:51;;;;;;;0.40;0.40;;;;;;;;;;4973674;28;20236;-69
2023/01/11 03:15:07;;;;;;;0.80;0.60;;;;;;;;;;4972652;28;20220;-68
2023/01/11 03:17:32;;;;;;;0.47;0.40;;;;;;;;;;4971357;28;20213;-69
2023/01/11 03:20:05;;;;;;;0.80;0.40;;;;;;;;;;4971836;28;20228;-69
2023/01/11 03:22:32;;;;;;;0.82;0.45;;;;;;;;;;4972067;28;20222;-69
2023/01/11 03:25:04;;;;;;;0.50;0.40;;;;;;;;;;4971097;28;20241;-69
2023/01/11 03:27:32;;;;;;;0.40;0.40;;;;;;;;;;4971357;28;20225;-69
2023/01/11 03:29:57;;;;;;;0.60;0.40;;;;;;;;;;4970725;28;20285;-69
2023/01/11 03:32:28;;;;;;;1.35;0.57;;;;;;;;;;4971643;28;20221;-69
2023/01/11 03:34:57;;;;;;;0.55;0.50;;;;;;;;;;4968738;28;20258;-68
2023/01/11 03:37:27;;;;;;;0.93;0.60;;;;;;;;;;4952119;28;20670;-69
2023/01/11 03:40:02;;;;;;;1.42;0.70;;;;;;;;;;4955566;28;20241;-69
2023/01/11 03:42:27;;;;;;;0.68;0.60;;;;;;;;;;4935258;29;20214;-69
2023/01/11 03:44:54;;;;;;;0.98;0.65;;;;;;;;;;4940340;29;20238;-69
2023/01/11 03:47:20;;;;;;;0.63;0.60;;;;;;;;;;4956111;29;20211;-69
2023/01/11 03:49:47;;;;;;;0.80;0.80;;;;;;;;;;4939865;29;20219;-69
2023/01/11 03:52:14;;;;;;;0.88;0.88;;;;;;;;;;4938245;28;20214;-69
2023/01/11 03:54:40;;;;;;;0.63;0.60;;;;;;;;;;4937931;29;20234;-69
2023/01/11 03:57:06;;;;;;;1.23;0.82;;;;;;;;;;4939448;28;20233;-68
2023/01/11 03:59:32;;;;;;;1.10;1.00;;;;;;;;;;4940089;29;20218;-69
2023/01/11 04:01:57;;;;;;;2.22;1.00;;;;;;;;;;4939232;29;20666;-69
2023/01/11 04:04:23;;;;;;;1.50;0.93;;;;;;;;;;4956484;28;20237;-69
2023/01/11 04:06:48;;;;;;;1.83;1.00;;;;;;;;;;4956974;28;20217;-69
2023/01/11 04:09:13;;;;;;;1.10;1.00;;;;;;;;;;4955806;29;20306;-69
2023/01/11 04:11:39;;;;;;;1.30;1.00;;;;;;;;;;4957000;29;20305;-68
2023/01/11 04:14:04;;;;;;;0.90;0.80;;;;;;;;;;4955820;29;20233;-68
2023/01/11 04:16:29;;;;;;;1.15;1.00;;;;;;;;;;4956678;29;20816;-69
2023/01/11 04:18:55;;;;;;;1.35;0.90;;;;;;;;;;4956649;29;20218;-69
2023/01/11 04:21:20;;;;;;;1.10;1.00;;;;;;;;;;4955430;29;20219;-68
2023/01/11 04:23:45;;;;;;;1.35;0.98;;;;;;;;;;4956638;29;20210;-69
2023/01/11 04:26:10;;;;;;;1.50;1.15;;;;;;;;;;4956179;29;20222;-69
2023/01/11 04:28:36;;;;;;;1.55;1.00;;;;;;;;;;4955980;29;20218;-69
2023/01/11 04:31:01;;;;;;;1.48;0.98;;;;;;;;;;4956008;29;20265;-68
2023/01/11 04:33:26;;;;;;;0.60;0.60;;;;;;;;;;4956507;29;20230;-69
2023/01/11 04:35:52;;;;;;;1.27;0.80;;;;;;;;;;4955634;28;20246;-69
2023/01/11 04:38:17;;;;;;;0.82;0.65;;;;;;;;;;4955953;29;20210;-68
2023/01/11 04:40:43;;;;;;;1.80;0.80;;;;;;;;;;4953022;29;20599;-69
2023/01/11 04:43:08;;;;;;;0.50;0.50;;;;;;;;;;4936091;29;20222;-68
2023/01/11 04:45:33;;;;;;;0.82;0.75;;;;;;;;;;4937215;29;20283;-69
2023/01/11 04:47:59;;;;;;;0.50;0.50;;;;;;;;;;4937070;29;20215;-69
2023/01/11 04:50:24;;;;;;;0.70;0.70;;;;;;;;;;4935778;29;20250;-69
2023/01/11 04:52:50;;;;;;;0.95;0.80;;;;;;;;;;4956264;28;20241;-71
2023/01/11 04:55:15;;;;;;;1.02;0.95;;;;;;;;;;4937155;28;20223;-70
2023/01/11 04:57:42;;;;;;;1.98;1.00;;;;;;;;;;4929214;29;20237;-70
2023/01/11 05:00:09;;;;;;;1.00;0.90;;;;;;;;;;4926996;29;20227;-70
2023/01/11 05:02:35;;;;;;;1.33;1.00;;;;;;;;;;4920400;28;20230;-71
2023/01/11 05:05:00;;;;;;;1.13;1.00;;;;;;;;;;4917253;29;20246;-69
2023/01/11 05:07:26;;;;;;;1.10;1.00;;;;;;;;;;4919733;29;20226;-70
2023/01/11 05:09:51;;;;;;;1.60;1.00;;;;;;;;;;4925165;29;20219;-71
2023/01/11 05:12:16;;;;;;;1.20;1.10;;;;;;;;;;4925904;29;20238;-71
2023/01/11 05:14:42;;;;;;;1.67;1.10;;;;;;;;;;4927374;29;20238;-71
2023/01/11 05:17:09;;;;;;;1.45;1.10;;;;;;;;;;4926339;29;20223;-70
2023/01/11 05:19:34;;;;;;;1.35;1.17;;;;;;;;;;4925122;29;20271;-71
2023/01/11 05:21:59;;;;;;;1.95;1.13;;;;;;;;;;4926829;29;20219;-71
2023/01/11 05:24:24;;;;;;;1.45;1.15;;;;;;;;;;4927289;28;20233;-71
2023/01/11 05:26:51;;;;;;;1.88;1.40;;;;;;;;;;4938193;28;20275;-71
2023/01/11 05:29:19;;;;;;;2.97;1.50;;;;;;;;;;4924005;28;20267;-71
2023/01/11 05:31:44;;;;;;;2.25;1.67;;;;;;;;;;4921888;29;20749;-71
2023/01/11 05:34:10;;;;;;;2.17;1.70;;;;;;;;;;4925947;29;20246;-71
2023/01/11 05:36:36;;;;;;;2.53;1.85;;;;;;;;;;4974180;28;20398;-71
2023/01/11 05:39:02;;;;;;;2.95;2.20;;;;;;;;;;4956300;28;20214;-70
2023/01/11 05:41:27;;;;;;;3.58;2.35;;;;;;;;;;4944500;28;20214;-72
2023/01/11 05:46:37;;;;;;;3.15;2.47;;;;;;;;;;4949121;28;20789;-71
2023/01/11 05:49:02;;;;;;;3.42;2.45;;;;;;;;;;4937538;28;20211;-71
2023/01/11 05:51:29;;;;;;;4.43;2.50;;;;;;;;;;4938374;28;20228;-72
2023/01/11 05:53:55;;;;;;;3.70;2.80;;;;;;;;;;4957001;28;20264;-71
2023/01/11 05:56:20;;;;;;;5.38;2.85;;;;;;;;;;4944514;28;20622;-71
2023/01/11 05:58:47;;;;;;;4.85;2.78;;;;;;;;;;4949426;28;20250;-71
2023/01/11 06:01:12;;;;;;;5.38;2.70;;;;;;;;;;4969185;28;20298;-71
2023/01/11 06:03:38;;;;;;;5.93;2.58;;;;;;;;;;4974239;28;20312;-72
2023/01/11 06:06:03;;;;;;;6.43;2.70;;;;;;;;;;4973767;28;20245;-72
2023/01/11 06:08:28;;;;;;;5.35;2.83;;;;;;;;;;4973613;28;20382;-68
2023/01/11 06:10:54;;;;;;;6.57;3.28;;;;;;;;;;4973975;28;20441;-70
2023/01/11 06:13:25;;;;;;;4.57;3.00;;;;;;;;;;4973371;28;20587;-67
2023/01/11 06:15:51;;;;;;;6.28;3.13;;;;;;;;;;4970367;28;20481;-67
2023/01/11 06:18:16;;;;;;;7.15;3.22;;;;;;;;;;4972616;28;20210;-68
2023/01/11 06:20:42;;;;;;;5.75;2.83;;;;;;;;;;4972943;28;20233;-68
2023/01/11 06:23:07;;;;;;;7.82;3.20;;;;;;;;;;4973076;28;20216;-66
2023/01/11 06:25:36;;;;;;;6.45;2.92;;;;;;;;;;4973327;28;20229;-66
2023/01/11 06:28:01;;;;;;;6.22;2.83;;;;;;;;;;4970124;28;20289;-66
2023/01/11 06:30:27;;;;;;;9.02;3.30;;;;;;;;;;4973485;28;20297;-67
2023/01/11 06:32:52;;;;;;;9.65;4.55;;;;;;;;;;4973518;28;20248;-67
2023/01/11 06:35:17;;;;;;;18.57;16.67;;;;;;;;;;4984744;28;20460;-66
2023/01/11 06:37:43;;;;;;;15.00;10.90;;;;;;;;;;4972956;28;20256;-67
2023/01/11 06:40:08;;;;;;;10.88;4.85;;;;;;;;;;4972816;28;20213;-67
2023/01/11 06:42:34;;;;;;;20.60;15.35;;;;;;;;;;4972626;28;20270;-67
2023/01/11 06:44:59;;;;;;;17.90;11.77;;;;;;;;;;4973236;28;20261;-68
2023/01/11 06:47:24;;;;;;;20.02;13.40;;;;;;;;;;4972822;28;20261;-67
2023/01/11 06:49:49;;;;;;;31.65;19.35;;;;;;;;;;4972403;28;20206;-68
2023/01/11 06:52:15;;;;;;;19.23;12.50;;;;;;;;;;4972723;28;20753;-67
2023/01/11 06:54:40;;;;;;;16.45;10.98;;;;;;;;;;4973334;28;20206;-67
2023/01/11 06:57:05;;;;;;;8.38;3.13;;;;;;;;;;4971865;28;20248;-67
2023/01/11 06:59:31;;;;;;;8.82;3.80;;;;;;;;;;4973069;28;20225;-67
2023/01/11 07:01:57;;;;;;;8.75;3.78;;;;;;;;;;4973136;28;20206;-68
2023/01/11 07:04:23;;;;;;;10.07;4.30;;;;;;;;;;4969722;28;20268;-68
2023/01/11 07:06:48;;;;;;;9.57;3.20;;;;;;;;;;4973034;28;20255;-69
2023/01/11 07:09:13;;;;;;;9.32;3.38;;;;;;;;;;4971941;28;20699;-66
2023/01/11 07:11:39;;;;;;;11.65;4.05;;;;;;;;;;4971324;28;20213;-68
2023/01/11 07:14:04;;;;;;;13.10;3.42;;;;;;;;;;4969702;28;20220;-68
2023/01/11 07:16:30;;;;;;;12.32;3.53;;;;;;;;;;4975685;28;20225;-69
2023/01/11 07:18:55;;;;;;;8.93;2.65;;;;;;;;;;4975831;28;20220;-70
2023/01/11 07:21:20;;;;;;;12.13;6.07;;;;;;;;;;4975302;28;20680;-69
2023/01/11 07:23:47;;;;;;;10.63;4.45;;;;;;;;;;4976421;28;20627;-74
2023/01/11 07:26:13;;;;;;;10.70;3.22;;;;;;;;;;4974663;28;20304;-74
2023/01/11 07:28:38;;;;;;;9.63;3.13;;;;;;;;;;4976973;28;20244;-74
2023/01/11 07:31:04;;;;;;;9.77;2.70;;;;;;;;;;4974485;28;20218;-74
2023/01/11 07:33:29;;;;;;;10.65;2.67;;;;;;;;;;4976324;28;20296;-74
2023/01/11 07:35:55;;;;;;;10.75;2.67;;;;;;;;;;4976705;28;20712;-74
2023/01/11 07:38:20;;;;;;;8.43;2.38;;;;;;;;;;4958112;28;20217;-74
2023/01/11 07:40:45;;;;;;;11.10;2.63;;;;;;;;;;4971823;28;20625;-74
2023/01/11 07:43:39;;;;;;;9.57;2.33;;;;;;;;;;4956725;28;20223;-74
2023/01/11 07:46:04;;;;;;;10.70;2.55;;;;;;;;;;4956413;28;20233;-74
2023/01/11 07:48:30;;;;;;;8.68;2.47;;;;;;;;;;4957257;28;20602;-74
2023/01/11 07:50:55;;;;;;;9.85;2.55;;;;;;;;;;4957061;28;20218;-74
2023/01/11 07:53:20;;;;;;;12.80;3.05;;;;;;;;;;4956486;28;20678;-74
2023/01/11 07:55:46;;;;;;;10.68;2.90;;;;;;;;;;4957460;28;20231;-74
2023/01/11 07:58:11;;;;;;;11.32;2.53;;;;;;;;;;4955902;28;20219;-72
2023/01/11 08:00:36;;;;;;;10.07;2.60;;;;;;;;;;4956089;28;20585;-72
2023/01/11 08:03:02;;;;;;;11.68;2.60;;;;;;;;;;4956928;28;20647;-72
2023/01/11 08:05:27;;;;;;;9.20;2.30;;;;;;;;;;4956001;28;20652;-72
2023/01/11 08:07:52;;;;;;;12.40;3.00;;;;;;;;;;4956579;28;20211;-72
2023/01/11 08:10:18;;;;;;;11.75;3.28;;;;;;;;;;4956451;28;20218;-72
2023/01/11 08:15:28;;;;;;;9.30;3.10;;;;;;;;;;4956072;28;20293;-73
2023/01/11 08:17:53;;;;;;;10.88;3.30;;;;;;;;;;4955696;28;20301;-73
2023/01/11 08:20:19;;;;;;;10.07;2.75;;;;;;;;;;4955356;28;20222;-73
2023/01/11 08:22:45;;;;;;;9.20;2.42;;;;;;;;;;4956556;28;20211;-73
2023/01/11 08:25:10;;;;;;;12.20;3.03;;;;;;;;;;4955784;28;20277;-73
2023/01/11 08:27:35;;;;;;;10.13;2.70;;;;;;;;;;4956076;28;20265;-73
2023/01/11 08:30:01;;;;;;;10.85;2.88;;;;;;;;;;4956262;28;20214;-72
2023/01/11 08:32:27;;;;;;;9.45;2.45;;;;;;;;;;4956697;28;20269;-73
2023/01/11 08:34:52;;;;;;;13.32;3.08;;;;;;;;;;4955804;28;20246;-73
2023/01/11 08:37:17;;;;;;;11.90;4.60;;;;;;;;;;4955831;29;20253;-73
2023/01/11 08:39:43;;;;;;;8.20;2.88;;;;;;;;;;4956560;29;20581;-73
2023/01/11 08:42:08;;;;;;;11.23;3.67;;;;;;;;;;4940739;29;20573;-73
2023/01/11 08:44:33;;;;;;;12.40;2.95;;;;;;;;;;4936921;29;20326;-73
2023/01/11 08:46:58;;;;;;;8.20;2.25;;;;;;;;;;4937095;29;20229;-73
2023/01/11 08:49:24;;;;;;;11.85;2.97;;;;;;;;;;4934829;29;20223;-73
2023/01/11 08:51:50;;;;;;;10.32;2.90;;;;;;;;;;4948392;28;20262;-73
2023/01/11 08:54:16;;;;;;;8.13;2.20;;;;;;;;;;4938469;28;20698;-73
2023/01/11 08:56:41;;;;;;;9.20;2.28;;;;;;;;;;4955819;28;20705;-73
2023/01/11 08:59:08;;;;;;;11.18;2.60;;;;;;;;;;4955639;28;20343;-72
2023/01/11 09:01:33;;;;;;;13.18;2.83;;;;;;;;;;4938893;29;20210;-73
2023/01/11 09:03:58;;;;;;;9.05;2.35;;;;;;;;;;4955475;28;20273;-73
2023/01/11 09:06:24;;;;;;;8.60;2.42;;;;;;;;;;4947320;28;20215;-72
2023/01/11 09:08:49;;;;;;;10.57;2.20;;;;;;;;;;4935664;29;20223;-73
2023/01/11 09:13:58;;;;;;;11.32;2.47;;;;;;;;;;4954474;29;20411;-72
2023/01/11 09:16:23;;;;;;;9.07;2.67;;;;;;;;;;4954240;29;20226;-72
2023/01/11 09:18:49;;;;;;;11.00;2.63;;;;;;;;;;4954084;29;20693;-73
2023/01/11 09:21:14;;;;;;;13.32;4.97;;;;;;;;;;4954917;29;20309;-72
2023/01/11 09:23:39;;;;;;;14.15;6.47;;;;;;;;;;4954772;29;20629;-72
2023/01/11 09:26:04;;;;;;;12.73;2.97;;;;;;;;;;4955138;29;20227;-72
2023/01/11 09:28:30;;;;;;;11.98;2.70;;;;;;;;;;4955768;29;20218;-72
2023/01/11 09:30:55;;;;;;;9.93;2.58;;;;;;;;;;4954583;29;20242;-72
2023/01/11 09:33:20;;;;;;;8.63;2.30;;;;;;;;;;4954962;29;20677;-72
2023/01/11 09:35:46;;;;;;;9.30;2.50;;;;;;;;;;4954946;28;20234;-72
2023/01/11 09:38:11;;;;;;;10.80;2.63;;;;;;;;;;4953632;29;20547;-72
2023/01/11 09:40:41;;;;;;;11.80;2.85;;;;;;;;;;4952878;29;20219;-72
2023/01/11 09:43:08;;;;;;;11.05;2.25;;;;;;;;;;4918053;29;20219;-72
2023/01/11 09:45:34;;;;;;;12.13;2.95;;;;;;;;;;4918508;29;20307;-72
2023/01/11 09:48:18;;;;;;;11.82;2.92;;;;;;;;;;4919295;29;20225;-73
2023/01/11 09:50:44;;;;;;;10.65;2.45;;;;;;;;;;4922643;29;20306;-72
2023/01/11 09:53:15;;;;;;;11.20;2.58;;;;;;;;;;4954226;28;20222;-71
2023/01/11 09:55:42;;;;;;;11.32;2.70;;;;;;;;;;4955193;28;20696;-72
2023/01/11 09:58:14;;;;;;;12.00;2.90;;;;;;;;;;4937512;28;20617;-72
2023/01/11 10:00:41;;;;;;;11.10;3.22;;;;;;;;;;4954357;28;20670;-72
2023/01/11 10:03:22;;;;;;;11.60;3.20;;;;;;;;;;4954088;28;20228;-71
2023/01/11 10:05:54;;;;;;;9.80;2.90;;;;;;;;;;4933034;29;20222;-72
2023/01/11 10:08:32;;;;;;;11.30;2.88;;;;;;;;;;4917499;29;20227;-72
2023/01/11 10:11:12;;;;;;;11.80;2.88;;;;;;;;;;4946748;29;20709;-72
2023/01/11 10:13:49;;;;;;;10.32;2.75;;;;;;;;;;4952879;29;20222;-72
2023/01/11 10:16:20;;;;;;;12.85;3.33;;;;;;;;;;4935924;29;20211;-72
2023/01/11 10:18:50;;;;;;;13.55;3.53;;;;;;;;;;4936689;29;20618;-72
2023/01/11 10:21:28;;;;;;;12.45;2.90;;;;;;;;;;4935416;29;20215;-72
2023/01/11 10:24:00;;;;;;;13.30;2.83;;;;;;;;;;4937102;29;20214;-72
2023/01/11 10:26:27;;;;;;;11.75;2.55;;;;;;;;;;4953748;29;20252;-72
2023/01/11 10:29:21;;;;;;;12.57;3.05;;;;;;;;;;4937287;29;20221;-72
2023/01/11 10:32:12;;;;;;;13.25;2.92;;;;;;;;;;4940025;29;20214;-72
2023/01/11 10:34:59;;;;;;;10.82;3.28;;;;;;;;;;4939399;28;20246;-72
2023/01/11 10:40:36;;;;;;;14.82;3.45;;;;;;;;;;4953699;29;20213;-72
2023/01/11 10:43:07;;;;;;;9.55;2.40;;;;;;;;;;4934261;29;20293;-71
2023/01/11 10:45:45;;;;;;;9.35;2.72;;;;;;;;;;4933982;29;20726;-72
2023/01/11 10:48:13;;;;;;;9.65;2.80;;;;;;;;;;4932659;29;20250;-72
2023/01/11 10:50:40;;;;;;;10.52;2.70;;;;;;;;;;4935981;29;20219;-72
2023/01/11 10:53:06;;;;;;;10.95;2.70;;;;;;;;;;4936558;28;20585;-71
2023/01/11 10:56:01;;;;;;;11.43;2.47;;;;;;;;;;4936686;29;20214;-72
2023/01/11 10:58:31;;;;;;;10.50;2.75;;;;;;;;;;4954012;28;20247;-72
2023/01/11 11:01:07;;;;;;;9.18;2.70;;;;;;;;;;4936759;29;20273;-72
2023/01/11 11:03:37;;;;;;;11.38;3.00;;;;;;;;;;4953415;28;20237;-72
2023/01/11 11:06:16;;;;;;;10.02;2.58;;;;;;;;;;4953574;28;20273;-72
2023/01/11 11:08:51;;;;;;;9.52;2.83;;;;;;;;;;4954106;29;20242;-72
2023/01/11 11:11:19;;;;;;;10.73;3.03;;;;;;;;;;4949610;29;20237;-72
2023/01/11 11:13:51;;;;;;;10.48;2.92;;;;;;;;;;4936971;29;20265;-72
2023/01/11 11:16:17;;;;;;;11.25;2.60;;;;;;;;;;4952595;29;20222;-72
2023/01/11 11:18:42;;;;;;;10.70;2.70;;;;;;;;;;4954050;29;20584;-72
2023/01/11 11:21:10;;;;;;;10.52;2.80;;;;;;;;;;4936279;29;20261;-72
2023/01/11 11:23:35;;;;;;;10.68;2.67;;;;;;;;;;4936290;29;20616;-73
2023/01/11 11:26:00;;;;;;;8.95;2.53;;;;;;;;;;4935749;29;20717;-69
2023/01/11 11:28:27;;;;;;;11.57;2.92;;;;;;;;;;4952304;29;20756;-73
2023/01/11 11:30:53;;;;;;;10.52;2.65;;;;;;;;;;4953392;29;20686;-73
2023/01/11 11:33:18;;;;;;;9.85;2.65;;;;;;;;;;4952617;29;20211;-73
2023/01/11 11:35:45;;;;;;;8.77;2.70;;;;;;;;;;4952838;28;20243;-73
2023/01/11 11:38:19;;;;;;;7.90;2.22;;;;;;;;;;4951935;29;20207;-72
2023/01/11 11:40:45;;;;;;;9.60;2.40;;;;;;;;;;4949488;29;20690;-73
2023/01/11 11:43:15;;;;;;;11.73;2.78;;;;;;;;;;4916836;29;20207;-72
2023/01/11 11:45:53;;;;;;;10.68;2.50;;;;;;;;;;4916501;29;20239;-73
2023/01/11 11:48:19;;;;;;;14.43;2.90;;;;;;;;;;4934031;29;20219;-73
2023/01/11 11:50:44;;;;;;;10.23;2.53;;;;;;;;;;4937286;29;20210;-73
2023/01/11 11:53:10;;;;;;;9.13;2.53;;;;;;;;;;4935433;28;20582;-72
2023/01/11 11:55:35;;;;;;;10.68;2.67;;;;;;;;;;4936573;29;20215;-73
2023/01/11 11:58:03;;;;;;;11.77;3.10;;;;;;;;;;4953133;28;20301;-71
2023/01/11 12:00:29;;;;;;;9.48;2.35;;;;;;;;;;4938150;29;20211;-73
2023/01/11 12:02:56;;;;;;;10.65;2.83;;;;;;;;;;4940029;29;20214;-73
2023/01/11 12:05:21;;;;;;;8.40;2.35;;;;;;;;;;4955821;28;20265;-73
2023/01/11 12:07:47;;;;;;;10.50;2.80;;;;;;;;;;4920828;29;20248;-73
2023/01/11 12:10:14;;;;;;;8.88;2.60;;;;;;;;;;4944176;29;20214;-72
2023/01/11 12:12:48;;;;;;;9.82;2.45;;;;;;;;;;4939268;29;20214;-73
2023/01/11 12:15:14;;;;;;;11.63;2.63;;;;;;;;;;4956445;29;20222;-72
2023/01/11 12:17:39;;;;;;;8.85;2.58;;;;;;;;;;4956548;29;20222;-72
2023/01/11 12:20:26;;;;;;;9.15;2.42;;;;;;;;;;4938748;29;20215;-72
2023/01/11 12:23:07;;;;;;;10.40;2.40;;;;;;;;;;4956833;29;20210;-73
2023/01/11 12:25:33;;;;;;;10.02;2.33;;;;;;;;;;4938274;29;20699;-73
2023/01/11 12:27:58;;;;;;;9.55;2.50;;;;;;;;;;4936112;29;20208;-73
2023/01/11 12:30:28;;;;;;;8.93;2.45;;;;;;;;;;4937137;29;20358;-73
2023/01/11 12:33:04;;;;;;;10.07;2.80;;;;;;;;;;4937066;29;20627;-72
2023/01/11 12:35:34;;;;;;;9.98;2.55;;;;;;;;;;4944254;29;20234;-72
2023/01/11 12:37:59;;;;;;;12.25;2.85;;;;;;;;;;4939437;29;20321;-73
2023/01/11 12:40:36;;;;;;;11.38;2.60;;;;;;;;;;4954580;28;20678;-72
2023/01/11 12:43:05;;;;;;;10.63;2.58;;;;;;;;;;4938895;28;20673;-72
2023/01/11 12:45:35;;;;;;;12.77;2.90;;;;;;;;;;4939110;29;20278;-72
2023/01/11 12:48:05;;;;;;;13.05;2.50;;;;;;;;;;4955376;28;20293;-71
2023/01/11 12:50:30;;;;;;;11.68;2.67;;;;;;;;;;4939168;29;20266;-73
2023/01/11 12:53:05;;;;;;;9.00;2.42;;;;;;;;;;4956129;28;20715;-73
2023/01/11 12:55:33;;;;;;;11.27;2.60;;;;;;;;;;4938196;29;20297;-72
2023/01/11 12:58:00;;;;;;;10.05;2.30;;;;;;;;;;4939003;29;20222;-73
2023/01/11 13:00:26;;;;;;;10.40;2.63;;;;;;;;;;4955708;28;20222;-72
2023/01/11 13:02:52;;;;;;;11.30;2.42;;;;;;;;;;4955663;28;20211;-73
2023/01/11 13:05:24;;;;;;;10.02;2.30;;;;;;;;;;4955388;28;20313;-72
2023/01/11 13:07:54;;;;;;;10.13;3.08;;;;;;;;;;4936774;29;20216;-73
2023/01/11 13:10:20;;;;;;;12.23;2.60;;;;;;;;;;4942143;28;20210;-72
2023/01/11 13:12:48;;;;;;;9.35;2.28;;;;;;;;;;4955032;28;20305;-73
2023/01/11 13:15:40;;;;;;;12.48;2.60;;;;;;;;;;4937941;28;20655;-72
2023/01/11 13:18:09;;;;;;;9.68;2.30;;;;;;;;;;4939242;28;20215;-71
2023/01/11 13:20:38;;;;;;;11.02;2.75;;;;;;;;;;4938263;29;20640;-73
2023/01/11 13:23:05;;;;;;;12.05;2.85;;;;;;;;;;4937687;28;20210;-72
2023/01/11 13:25:31;;;;;;;10.02;2.70;;;;;;;;;;4938395;29;20226;-72
2023/01/11 13:27:57;;;;;;;10.52;2.83;;;;;;;;;;4938200;29;20242;-73
2023/01/11 13:30:23;;;;;;;11.23;2.80;;;;;;;;;;4937485;28;20265;-72
2023/01/11 13:32:54;;;;;;;9.35;2.67;;;;;;;;;;4938682;29;20229;-67
2023/01/11 13:35:23;;;;;;;8.90;2.33;;;;;;;;;;4946355;28;20704;-67
2023/01/11 13:37:52;;;;;;;10.32;2.63;;;;;;;;;;4967170;28;20293;-67
2023/01/11 13:40:19;;;;;;;11.07;3.35;;;;;;;;;;4965862;28;20214;-67
2023/01/11 13:42:45;;;;;;;8.00;2.50;;;;;;;;;;4958604;28;20249;-67
2023/01/11 13:45:20;;;;;;;8.32;2.40;;;;;;;;;;4972424;28;20241;-67
2023/01/11 13:47:45;;;;;;;10.40;2.80;;;;;;;;;;4972392;28;20222;-67
2023/01/11 13:50:22;;;;;;;10.65;2.40;;;;;;;;;;4973340;28;20208;-67
2023/01/11 13:52:53;;;;;;;11.88;3.03;;;;;;;;;;4972126;28;20584;-68
2023/01/11 13:55:21;;;;;;;13.57;3.35;;;;;;;;;;4973482;28;20221;-67
2023/01/11 13:57:51;;;;;;;10.48;2.88;;;;;;;;;;4972439;28;20280;-67
2023/01/11 14:00:20;;;;;;;12.48;2.72;;;;;;;;;;4966367;28;20210;-67
2023/01/11 14:02:46;;;;;;;10.73;2.60;;;;;;;;;;4971483;28;20272;-67
2023/01/11 14:05:13;;;;;;;13.50;2.65;;;;;;;;;;4974858;28;20237;-67
2023/01/11 14:07:43;;;;;;;8.32;2.63;;;;;;;;;;4954290;28;20702;-67
2023/01/11 14:10:15;;;;;;;11.27;2.70;;;;;;;;;;4959317;28;20213;-67
2023/01/11 14:12:50;;;;;;;10.10;2.50;;;;;;;;;;4973341;28;20301;-67
2023/01/11 14:15:21;;;;;;;13.60;3.22;;;;;;;;;;4973573;28;20272;-67
2023/01/11 14:17:47;;;;;;;7.90;2.35;;;;;;;;;;4974023;28;20218;-67
2023/01/11 14:20:16;;;;;;;12.00;2.83;;;;;;;;;;4972237;28;20225;-67
2023/01/11 14:22:45;;;;;;;9.55;2.63;;;;;;;;;;4971390;28;20210;-67
2023/01/11 14:25:15;;;;;;;11.20;2.90;;;;;;;;;;4971582;28;20272;-67
2023/01/11 14:27:46;;;;;;;10.65;2.65;;;;;;;;;;4971759;28;20213;-68
2023/01/11 14:30:11;;;;;;;10.57;2.70;;;;;;;;;;4972027;28;20224;-67
2023/01/11 14:32:44;;;;;;;9.80;2.72;;;;;;;;;;4973908;28;20213;-67
2023/01/11 14:35:16;;;;;;;15.38;3.30;;;;;;;;;;4972934;28;20325;-67
2023/01/11 14:37:46;;;;;;;10.95;2.65;;;;;;;;;;4972210;28;20301;-68
2023/01/11 14:40:14;;;;;;;12.68;2.80;;;;;;;;;;4972959;28;20217;-67
2023/01/11 14:42:44;;;;;;;11.15;2.90;;;;;;;;;;4973716;28;20256;-68
2023/01/11 14:45:25;;;;;;;11.43;2.90;;;;;;;;;;4971841;28;20241;-67
2023/01/11 14:47:50;;;;;;;10.75;2.90;;;;;;;;;;4972160;28;20216;-68
2023/01/11 14:50:16;;;;;;;11.50;2.83;;;;;;;;;;4973288;28;20213;-68
2023/01/11 14:52:41;;;;;;;12.85;3.28;;;;;;;;;;4973144;28;20229;-67
2023/01/11 14:55:14;;;;;;;12.43;3.15;;;;;;;;;;4972837;28;20244;-67
2023/01/11 14:57:40;;;;;;;10.48;2.80;;;;;;;;;;4963274;28;20270;-67
2023/01/11 15:00:13;;;;;;;10.93;2.70;;;;;;;;;;4955240;28;20210;-67
2023/01/11 15:02:38;;;;;;;9.82;3.08;;;;;;;;;;4959147;28;20217;-68
2023/01/11 15:05:04;;;;;;;11.65;3.10;;;;;;;;;;4962434;28;20281;-67
2023/01/11 15:07:29;;;;;;;8.95;2.60;;;;;;;;;;4965108;28;20736;-67